createdAt,value
2018-12-20T00:02:05.304Z,2.37
2018-12-20T00:04:39.980Z,2.37
2018-12-20T00:07:15.228Z,2.09
2018-12-20T00:09:50.862Z,2.06
2018-12-20T00:12:25.714Z,2.19
2018-12-20T00:15:00.691Z,2.29
2018-12-20T00:17:41.118Z,2.28
2018-12-20T00:20:16.671Z,2.38
2018-12-20T00:22:51.440Z,2.32
2018-12-20T00:25:26.532Z,2.24
2018-12-20T00:28:01.741Z,2.21
2018-12-20T00:30:37.137Z,2.23
2018-12-20T00:33:12.481Z,2.27
2018-12-20T00:35:47.075Z,2.21
2018-12-20T00:38:21.746Z,2.10
2018-12-20T00:40:56.373Z,2.21
2018-12-20T00:43:31.692Z,2.09
2018-12-20T00:46:06.756Z,2.07
2018-12-20T00:48:41.284Z,2.04
2018-12-20T00:51:16.718Z,2.01
2018-12-20T00:53:51.520Z,2.07
2018-12-20T00:56:26.851Z,2.05
2018-12-20T00:59:01.390Z,2.06
2018-12-20T01:01:36.399Z,2.08
2018-12-20T01:04:11.987Z,2.17
2018-12-20T01:06:46.558Z,2.04
2018-12-20T01:09:21.595Z,2.04
2018-12-20T01:11:56.008Z,2.04
2018-12-20T01:14:30.917Z,2.08
2018-12-20T01:17:05.803Z,2.13
2018-12-20T01:19:40.488Z,2.10
2018-12-20T01:22:16.330Z,2.18
2018-12-20T01:24:51.047Z,2.17
2018-12-20T01:27:25.695Z,2.26
2018-12-20T01:30:00.746Z,2.30
2018-12-20T01:32:35.175Z,2.28
2018-12-20T01:35:10.331Z,2.26
2018-12-20T01:37:44.871Z,2.22
2018-12-20T01:40:19.933Z,2.21
2018-12-20T01:42:54.639Z,2.37
2018-12-20T01:45:29.505Z,2.51
2018-12-20T01:48:04.667Z,2.41
2018-12-20T01:50:39.644Z,2.52
2018-12-20T01:53:14.676Z,2.63
2018-12-20T01:55:49.468Z,2.53
2018-12-20T01:58:24.640Z,2.52
2018-12-20T02:00:59.831Z,2.59
2018-12-20T02:03:34.427Z,2.54
2018-12-20T02:06:09.610Z,2.78
2018-12-20T02:08:44.150Z,2.76
2018-12-20T02:11:18.835Z,2.69
2018-12-20T02:13:53.483Z,2.69
2018-12-20T02:16:28.993Z,2.69
2018-12-20T02:19:04.243Z,2.69
2018-12-20T02:21:39.929Z,2.77
2018-12-20T02:24:14.810Z,2.85
2018-12-20T02:26:50.408Z,2.85
2018-12-20T02:29:26.524Z,2.87
2018-12-20T02:32:01.488Z,2.97
2018-12-20T02:34:36.418Z,2.98
2018-12-20T02:37:11.649Z,2.93
2018-12-20T02:39:46.890Z,2.96
2018-12-20T02:42:21.459Z,3.00
2018-12-20T02:44:56.135Z,2.94
2018-12-20T02:47:30.942Z,3.04
2018-12-20T02:50:06.126Z,3.01
2018-12-20T02:52:40.860Z,3.04
2018-12-20T02:55:16.005Z,3.16
2018-12-20T02:57:50.904Z,3.15
2018-12-20T03:00:26.423Z,3.15
2018-12-20T03:03:01.553Z,3.17
2018-12-20T03:05:36.678Z,3.32
2018-12-20T03:08:12.004Z,3.28
2018-12-20T03:10:46.756Z,3.27
2018-12-20T03:13:21.648Z,3.16
2018-12-20T03:15:56.822Z,3.18
2018-12-20T03:18:31.586Z,3.25
2018-12-20T03:21:06.442Z,3.14
2018-12-20T03:23:41.554Z,3.21
2018-12-20T03:26:17.695Z,3.18
2018-12-20T03:28:52.199Z,3.19
2018-12-20T03:31:27.783Z,3.25
2018-12-20T03:34:03.454Z,3.34
2018-12-20T03:36:38.752Z,3.39
2018-12-20T03:39:13.774Z,3.48
2018-12-20T03:41:48.656Z,3.47
2018-12-20T03:44:23.279Z,3.51
2018-12-20T03:46:58.833Z,3.56
2018-12-20T03:49:33.638Z,3.52
2018-12-20T03:52:09.443Z,3.60
2018-12-20T03:54:44.493Z,3.54
2018-12-20T03:57:19.589Z,3.56
2018-12-20T03:59:54.822Z,3.51
2018-12-20T04:02:30.179Z,3.64
2018-12-20T04:05:05.489Z,3.57
2018-12-20T04:07:40.528Z,3.53
2018-12-20T04:10:15.532Z,3.51
2018-12-20T04:12:50.370Z,3.57
2018-12-20T04:15:25.601Z,3.47
2018-12-20T04:18:00.806Z,3.44
2018-12-20T04:20:35.596Z,3.51
2018-12-20T04:23:10.999Z,3.50
2018-12-20T04:25:45.890Z,3.47
2018-12-20T04:28:20.627Z,3.41
2018-12-20T04:30:55.549Z,3.40
2018-12-20T04:33:30.369Z,3.46
2018-12-20T04:36:05.621Z,3.39
2018-12-20T04:38:40.705Z,3.49
2018-12-20T04:41:16.575Z,3.51
2018-12-20T04:43:51.904Z,3.51
2018-12-20T04:46:27.490Z,3.49
2018-12-20T04:49:02.690Z,3.49
2018-12-20T04:51:37.666Z,3.58
2018-12-20T04:54:13.051Z,3.52
2018-12-20T04:56:48.306Z,3.56
2018-12-20T04:59:23.511Z,3.45
2018-12-20T05:01:58.697Z,3.54
2018-12-20T05:04:33.663Z,3.51
2018-12-20T05:07:08.940Z,3.49
2018-12-20T05:09:43.719Z,3.49
2018-12-20T05:12:20.710Z,3.55
2018-12-20T05:14:55.845Z,3.58
2018-12-20T05:17:31.254Z,3.59
2018-12-20T05:20:07.596Z,3.58
2018-12-20T05:22:42.631Z,3.56
2018-12-20T05:25:17.535Z,3.59
2018-12-20T05:27:52.315Z,3.73
2018-12-20T05:30:27.163Z,3.61
2018-12-20T05:33:02.877Z,3.72
2018-12-20T05:35:38.299Z,3.71
2018-12-20T05:38:13.756Z,3.78
2018-12-20T05:40:48.810Z,3.72
2018-12-20T05:43:24.034Z,3.71
2018-12-20T05:46:04.533Z,3.71
2018-12-20T05:48:36.135Z,3.73
2018-12-20T05:51:11.239Z,3.77
2018-12-20T05:53:45.815Z,3.77
2018-12-20T05:56:20.928Z,3.83
2018-12-20T05:58:55.895Z,3.84
2018-12-20T06:01:30.419Z,3.89
2018-12-20T06:04:06.372Z,3.83
2018-12-20T06:06:41.206Z,3.74
2018-12-20T06:09:16.192Z,3.79
2018-12-20T06:11:51.002Z,3.87
2018-12-20T06:14:25.960Z,3.78
2018-12-20T06:17:02.769Z,3.87
2018-12-20T06:19:37.636Z,3.79
2018-12-20T06:22:12.982Z,3.79
2018-12-20T06:24:47.697Z,3.78
2018-12-20T06:27:22.087Z,3.70
2018-12-20T06:29:57.226Z,3.66
2018-12-20T06:32:31.715Z,3.67
2018-12-20T06:35:06.821Z,3.65
2018-12-20T06:37:41.446Z,3.65
2018-12-20T06:40:16.498Z,3.63
2018-12-20T06:42:51.252Z,3.64
2018-12-20T06:45:25.795Z,3.72
2018-12-20T06:48:00.419Z,3.54
2018-12-20T06:50:35.530Z,3.55
2018-12-20T06:53:10.548Z,3.50
2018-12-20T06:55:44.994Z,3.54
2018-12-20T06:58:19.571Z,3.62
2018-12-20T07:00:54.083Z,3.57
2018-12-20T07:03:28.723Z,3.50
2018-12-20T07:06:03.806Z,3.69
2018-12-20T07:08:38.203Z,3.65
2018-12-20T07:11:13.354Z,3.72
2018-12-20T07:13:47.792Z,3.72
2018-12-20T07:16:29.146Z,3.81
2018-12-20T07:18:58.823Z,3.69
2018-12-20T07:21:33.352Z,3.78
2018-12-20T07:24:08.061Z,3.77
2018-12-20T07:26:42.470Z,3.65
2018-12-20T07:29:16.831Z,3.68
2018-12-20T07:31:51.971Z,3.57
2018-12-20T07:34:27.012Z,3.46
2018-12-20T07:37:01.358Z,3.48
2018-12-20T07:39:38.563Z,3.58
2018-12-20T07:42:12.875Z,3.58
2018-12-20T07:44:47.392Z,3.41
2018-12-20T07:47:22.211Z,3.44
2018-12-20T07:49:56.982Z,3.43
2018-12-20T07:52:31.559Z,3.53
2018-12-20T07:55:07.018Z,3.53
2018-12-20T07:57:41.747Z,3.57
2018-12-20T08:00:16.426Z,3.56
2018-12-20T08:02:51.359Z,3.66
2018-12-20T08:05:26.686Z,3.67
2018-12-20T08:08:01.633Z,3.60
2018-12-20T08:10:36.102Z,3.68
2018-12-20T08:13:10.814Z,3.67
2018-12-20T08:15:45.430Z,3.73
2018-12-20T08:18:20.369Z,3.82
2018-12-20T08:20:56.314Z,3.79
2018-12-20T08:23:30.960Z,3.70
2018-12-20T08:26:05.870Z,3.70
2018-12-20T08:28:40.311Z,3.86
2018-12-20T08:31:15.465Z,3.82
2018-12-20T08:33:49.736Z,3.77
2018-12-20T08:36:24.762Z,3.72
2018-12-20T08:38:59.686Z,3.76
2018-12-20T08:41:34.188Z,3.82
2018-12-20T08:44:08.770Z,3.83
2018-12-20T08:46:44.989Z,3.79
2018-12-20T08:49:19.506Z,3.75
2018-12-20T08:51:54.202Z,3.86
2018-12-20T08:54:28.678Z,3.90
2018-12-20T08:57:04.429Z,4.02
2018-12-20T08:59:39.217Z,4.06
2018-12-20T09:02:14.571Z,4.25
2018-12-20T09:04:49.647Z,4.35
2018-12-20T09:07:24.510Z,4.68
2018-12-20T09:09:59.574Z,4.80
2018-12-20T09:12:34.490Z,4.79
2018-12-20T09:15:10.099Z,4.82
2018-12-20T09:17:44.818Z,4.97
2018-12-20T09:20:19.451Z,5.04
2018-12-20T09:22:54.492Z,5.38
2018-12-20T09:25:29.129Z,5.61
2018-12-20T09:28:03.626Z,5.75
2018-12-20T09:30:38.318Z,5.92
2018-12-20T09:33:13.077Z,6.10
2018-12-20T09:35:48.225Z,6.27
2018-12-20T09:38:22.757Z,6.19
2018-12-20T09:40:57.704Z,6.22
2018-12-20T09:43:32.427Z,6.09
2018-12-20T09:46:06.971Z,6.18
2018-12-20T09:48:42.404Z,6.10
2018-12-20T09:51:17.110Z,6.06
2018-12-20T09:53:53.006Z,6.14
2018-12-20T09:56:28.156Z,6.14
2018-12-20T09:59:03.087Z,6.16
2018-12-20T10:01:38.454Z,6.20
2018-12-20T10:04:12.902Z,6.15
2018-12-20T10:06:47.287Z,6.29
2018-12-20T10:09:21.677Z,6.37
2018-12-20T10:11:56.586Z,6.49
2018-12-20T10:14:31.646Z,6.50
2018-12-20T10:17:06.032Z,6.54
2018-12-20T10:19:41.067Z,6.49
2018-12-20T10:22:15.770Z,6.40
2018-12-20T10:24:50.151Z,6.38
2018-12-20T10:27:31.424Z,6.44
2018-12-20T10:30:01.308Z,6.41
2018-12-20T10:32:36.305Z,6.47
2018-12-20T10:35:11.417Z,6.57
2018-12-20T10:37:46.137Z,6.59
2018-12-20T10:40:21.309Z,6.57
2018-12-20T10:42:56.410Z,6.65
2018-12-20T10:45:31.556Z,6.57
2018-12-20T10:48:06.794Z,6.62
2018-12-20T10:50:42.594Z,6.67
2018-12-20T10:53:17.388Z,6.70
2018-12-20T10:55:52.242Z,6.67
2018-12-20T10:58:26.954Z,6.66
2018-12-20T11:01:06.771Z,6.57
2018-12-20T11:03:47.827Z,6.63
2018-12-20T11:06:27.774Z,6.63
2018-12-20T11:09:08.177Z,6.65
2018-12-20T11:11:47.911Z,6.78
2018-12-20T11:14:22.551Z,6.92
2018-12-20T11:16:57.507Z,6.98
2018-12-20T11:19:31.828Z,6.95
2018-12-20T11:22:06.426Z,7.00
2018-12-20T11:24:41.332Z,6.95
2018-12-20T11:27:16.222Z,6.99
2018-12-20T11:29:50.849Z,7.10
2018-12-20T11:32:25.215Z,7.15
2018-12-20T11:34:59.490Z,7.09
2018-12-20T11:37:33.876Z,7.26
2018-12-20T11:40:09.722Z,7.26
2018-12-20T11:42:44.662Z,7.25
2018-12-20T11:45:19.354Z,7.36
2018-12-20T11:47:54.011Z,7.41
2018-12-20T11:50:29.178Z,7.37
2018-12-20T11:53:04.379Z,7.44
2018-12-20T11:55:39.199Z,7.51
2018-12-20T11:58:13.499Z,7.62
2018-12-20T12:00:47.951Z,7.64
2018-12-20T12:03:22.334Z,7.74
2018-12-20T12:05:57.595Z,7.55
2018-12-20T12:08:32.173Z,7.46
2018-12-20T12:11:07.153Z,7.45
2018-12-20T12:13:41.854Z,7.33
2018-12-20T12:16:16.613Z,7.43
2018-12-20T12:18:50.954Z,7.59
2018-12-20T12:21:25.827Z,7.62
2018-12-20T12:24:00.475Z,7.61
2018-12-20T12:26:37.721Z,7.57
2018-12-20T12:29:12.845Z,7.65
2018-12-20T12:31:47.894Z,7.59
2018-12-20T12:34:23.272Z,7.49
2018-12-20T12:36:58.183Z,7.45
2018-12-20T12:39:32.776Z,7.49
2018-12-20T12:42:07.476Z,7.45
2018-12-20T12:44:42.575Z,7.35
2018-12-20T12:47:19.340Z,7.41
2018-12-20T12:49:54.387Z,7.66
2018-12-20T12:52:29.043Z,7.95
2018-12-20T12:55:05.186Z,8.06
2018-12-20T12:57:39.551Z,8.29
2018-12-20T13:00:18.522Z,8.42
2018-12-20T13:02:53.808Z,8.59
2018-12-20T13:05:29.689Z,8.70
2018-12-20T13:08:04.931Z,8.62
2018-12-20T13:10:44.819Z,8.80
2018-12-20T13:13:19.284Z,8.69
2018-12-20T13:15:55.295Z,8.71
2018-12-20T13:18:29.935Z,8.99
2018-12-20T13:21:05.786Z,9.04
2018-12-20T13:23:40.506Z,9.01
2018-12-20T13:26:14.817Z,8.99
2018-12-20T13:28:49.443Z,8.95
2018-12-20T13:31:24.531Z,9.05
2018-12-20T13:33:58.976Z,8.98
2018-12-20T13:36:33.293Z,8.89
2018-12-20T13:39:08.698Z,8.89
2018-12-20T13:41:43.779Z,8.93
2018-12-20T13:44:18.462Z,8.78
2018-12-20T13:46:53.494Z,8.61
2018-12-20T13:49:27.938Z,8.72
2018-12-20T13:52:02.694Z,8.46
2018-12-20T13:54:37.000Z,8.37
2018-12-20T13:57:11.651Z,8.39
2018-12-20T13:59:46.137Z,8.37
2018-12-20T14:02:20.789Z,8.32
2018-12-20T14:04:56.930Z,8.25
2018-12-20T14:07:31.966Z,8.20
2018-12-20T14:10:08.670Z,8.08
2018-12-20T14:12:44.084Z,7.99
2018-12-20T14:15:18.874Z,8.04
2018-12-20T14:17:53.712Z,7.95
2018-12-20T14:20:28.444Z,7.99
2018-12-20T14:23:03.431Z,8.01
2018-12-20T14:25:38.659Z,8.08
2018-12-20T14:28:13.902Z,7.99
2018-12-20T14:30:49.252Z,7.91
2018-12-20T14:33:25.107Z,7.97
2018-12-20T14:36:00.510Z,8.03
2018-12-20T14:38:35.208Z,7.83
2018-12-20T14:41:10.447Z,7.84
2018-12-20T14:43:45.551Z,7.79
2018-12-20T14:46:20.479Z,7.86
2018-12-20T14:48:54.904Z,7.69
2018-12-20T14:51:29.366Z,7.66
2018-12-20T14:54:04.733Z,7.52
2018-12-20T14:56:39.439Z,7.39
2018-12-20T14:59:14.386Z,7.44
2018-12-20T15:01:48.798Z,7.48
2018-12-20T15:04:23.248Z,7.39
2018-12-20T15:06:57.699Z,7.14
2018-12-20T15:09:32.228Z,7.16
2018-12-20T15:12:07.458Z,7.09
2018-12-20T15:14:42.313Z,6.93
2018-12-20T15:17:16.891Z,6.82
2018-12-20T15:19:51.553Z,6.73
2018-12-20T15:22:26.070Z,6.73
2018-12-20T15:25:01.025Z,6.80
2018-12-20T15:27:35.810Z,6.64
2018-12-20T15:30:12.018Z,6.67
2018-12-20T15:32:46.842Z,6.53
2018-12-20T15:35:21.766Z,6.45
2018-12-20T15:37:56.923Z,6.48
2018-12-20T15:40:31.519Z,6.41
2018-12-20T15:43:06.446Z,6.26
2018-12-20T15:45:40.918Z,6.23
2018-12-20T15:48:17.555Z,6.43
2018-12-20T15:50:52.162Z,6.35
2018-12-20T15:53:27.218Z,6.27
2018-12-20T15:56:02.606Z,6.44
2018-12-20T15:58:37.622Z,6.26
2018-12-20T16:01:12.727Z,6.41
2018-12-20T16:03:47.254Z,6.41
2018-12-20T16:06:22.219Z,6.38
2018-12-20T16:08:57.093Z,6.36
2018-12-20T16:11:32.598Z,6.33
2018-12-20T16:14:07.023Z,6.43
2018-12-20T16:16:41.864Z,6.35
2018-12-20T16:19:16.478Z,6.32
2018-12-20T16:21:51.091Z,6.31
2018-12-20T16:24:25.676Z,6.35
2018-12-20T16:27:01.262Z,6.18
2018-12-20T16:29:35.681Z,6.15
2018-12-20T16:32:10.598Z,6.01
2018-12-20T16:34:45.331Z,6.02
2018-12-20T16:37:19.912Z,5.82
2018-12-20T16:39:54.788Z,5.90
2018-12-20T16:42:29.641Z,5.91
2018-12-20T16:45:05.711Z,5.86
2018-12-20T16:47:41.023Z,5.99
2018-12-20T16:50:16.125Z,5.79
2018-12-20T16:55:50.711Z,5.67
2018-12-20T16:58:25.347Z,5.55
2018-12-20T17:00:59.898Z,5.55
2018-12-20T17:03:34.230Z,5.65
2018-12-20T17:06:09.020Z,5.67
2018-12-20T17:08:48.116Z,5.50
2018-12-20T17:11:20.594Z,5.58
2018-12-20T17:13:55.471Z,5.47
2018-12-20T17:16:30.679Z,5.42
2018-12-20T17:19:05.010Z,5.47
2018-12-20T17:21:40.574Z,5.50
2018-12-20T17:24:18.400Z,5.34
2018-12-20T17:26:54.764Z,5.32
2018-12-20T17:29:29.909Z,5.49
2018-12-20T17:32:05.453Z,5.45
2018-12-20T17:34:40.238Z,5.54
2018-12-20T17:37:15.226Z,5.38
2018-12-20T17:39:50.398Z,5.31
2018-12-20T17:42:25.951Z,5.32
2018-12-20T17:45:01.862Z,5.35
2018-12-20T17:47:37.027Z,5.36
2018-12-20T17:50:12.247Z,5.28
2018-12-20T17:52:47.519Z,5.35
2018-12-20T17:55:23.967Z,5.22
2018-12-20T17:57:58.601Z,5.20
2018-12-20T18:00:33.283Z,5.16
2018-12-20T18:03:08.295Z,5.11
2018-12-20T18:05:42.753Z,5.13
2018-12-20T18:08:17.536Z,5.14
2018-12-20T18:10:52.886Z,5.04
2018-12-20T18:13:28.726Z,5.16
2018-12-20T18:16:03.923Z,4.96
2018-12-20T18:18:38.242Z,4.94
2018-12-20T18:21:12.679Z,4.99
2018-12-20T18:23:47.409Z,5.01
2018-12-20T18:26:22.398Z,4.97
2018-12-20T18:28:56.671Z,5.05
2018-12-20T18:31:31.163Z,5.07
2018-12-20T18:34:16.027Z,5.14
2018-12-20T18:36:50.918Z,5.10
2018-12-20T18:39:25.755Z,5.04
2018-12-20T18:42:00.222Z,5.11
2018-12-20T18:44:34.646Z,5.04
2018-12-20T18:47:09.649Z,5.07
2018-12-20T18:49:47.602Z,5.21
2018-12-20T18:52:21.760Z,5.23
2018-12-20T18:54:56.545Z,5.21
2018-12-20T18:57:31.265Z,5.18
2018-12-20T19:00:09.234Z,5.16
2018-12-20T19:02:55.675Z,5.23
2018-12-20T19:11:23.088Z,5.27
2018-12-20T19:13:59.034Z,5.16
2018-12-20T19:16:33.870Z,5.27
2018-12-20T19:19:17.537Z,5.30
2018-12-20T19:21:52.444Z,5.36
2018-12-20T19:24:26.825Z,5.47
2018-12-20T19:27:01.366Z,5.59
2018-12-20T19:29:36.471Z,5.71
2018-12-20T19:32:11.434Z,5.84
2018-12-20T19:34:45.919Z,6.02
2018-12-20T19:37:20.991Z,6.10
2018-12-20T19:40:00.889Z,6.19
2018-12-20T19:42:36.431Z,6.25
2018-12-20T19:45:11.358Z,6.31
2018-12-20T19:47:46.010Z,6.24
2018-12-20T19:50:21.906Z,6.28
2018-12-20T19:52:57.005Z,6.24
2018-12-20T19:55:31.726Z,6.18
2018-12-20T19:58:06.883Z,6.18
2018-12-20T20:00:41.551Z,5.94
2018-12-20T20:03:16.329Z,6.02
2018-12-20T20:05:51.722Z,5.98
2018-12-20T20:08:30.598Z,5.97
2018-12-20T20:11:06.260Z,6.09
2018-12-20T20:13:40.603Z,5.98
2018-12-20T20:16:15.069Z,5.98
2018-12-20T20:18:49.914Z,5.91
2018-12-20T20:21:24.586Z,5.78
2018-12-20T20:23:58.871Z,5.66
2018-12-20T20:26:34.767Z,5.64
2018-12-20T20:29:11.667Z,5.72
2018-12-20T20:31:46.416Z,5.58
2018-12-20T20:34:21.298Z,5.69
2018-12-20T20:36:56.230Z,5.68
2018-12-20T20:39:31.956Z,5.70
2018-12-20T20:42:07.261Z,5.67
2018-12-20T20:44:42.092Z,5.72
2018-12-20T20:47:16.634Z,5.69
2018-12-20T20:49:53.405Z,5.69
2018-12-20T20:52:28.658Z,5.78
2018-12-20T20:55:08.755Z,5.79
2018-12-20T20:57:51.908Z,5.70
2018-12-20T21:00:26.905Z,5.77
2018-12-20T21:03:05.328Z,5.73
2018-12-20T21:05:43.247Z,5.65
2018-12-20T21:08:20.069Z,5.65
2018-12-20T21:10:58.462Z,5.72
2018-12-20T21:13:46.006Z,5.76
2018-12-20T21:16:20.571Z,5.76
2018-12-20T21:18:59.942Z,5.74
2018-12-20T21:21:38.069Z,5.72
2018-12-20T21:24:26.714Z,5.70
2018-12-20T21:27:01.052Z,5.67
2018-12-20T21:29:48.966Z,5.70
2018-12-20T21:32:23.967Z,5.45
2018-12-20T21:35:02.745Z,5.41
2018-12-20T21:37:39.014Z,5.42
2018-12-20T21:43:16.101Z,5.29
2018-12-20T21:46:05.632Z,5.23
2018-12-20T21:48:46.098Z,5.26
2018-12-20T21:51:32.957Z,5.21
2018-12-20T21:54:14.182Z,5.18
2018-12-20T21:56:52.859Z,5.13
2018-12-20T21:59:46.023Z,5.10
2018-12-20T22:02:26.764Z,5.26
2018-12-20T22:05:03.963Z,5.25
2018-12-20T22:07:41.523Z,5.24
2018-12-20T22:10:19.016Z,5.28
2018-12-20T22:13:00.561Z,5.20
2018-12-20T22:21:31.611Z,5.43
2018-12-20T22:24:28.137Z,5.54
2018-12-20T22:27:27.153Z,5.56
2018-12-20T22:30:14.380Z,5.43
2018-12-20T22:32:56.797Z,5.53
2018-12-20T22:35:35.934Z,5.69
2018-12-20T22:38:31.619Z,5.73
2018-12-20T22:41:08.113Z,5.76
2018-12-20T22:43:47.095Z,5.73
2018-12-20T22:46:25.065Z,5.82
2018-12-20T22:49:05.919Z,5.80
2018-12-20T22:51:40.427Z,5.73
2018-12-20T22:54:16.911Z,5.77
2018-12-20T22:56:54.768Z,5.67
2018-12-20T22:59:38.347Z,5.61
2018-12-20T23:02:18.457Z,5.53
2018-12-20T23:04:55.650Z,5.57
2018-12-20T23:07:37.146Z,5.50
2018-12-20T23:10:21.559Z,5.38
2018-12-20T23:13:02.578Z,5.43
2018-12-20T23:15:43.487Z,5.54
2018-12-20T23:18:25.096Z,5.39
2018-12-20T23:21:06.058Z,5.41
2018-12-20T23:23:40.759Z,5.30
2018-12-20T23:26:15.912Z,5.18
2018-12-20T23:28:50.301Z,5.18
2018-12-20T23:31:25.135Z,5.07
2018-12-20T23:34:00.091Z,4.92
2018-12-20T23:36:34.485Z,4.85
2018-12-20T23:39:09.526Z,4.84
2018-12-20T23:41:44.505Z,4.73
2018-12-20T23:44:19.181Z,4.67
2018-12-20T23:46:53.671Z,4.74
2018-12-20T23:49:28.107Z,4.74
2018-12-20T23:52:02.727Z,4.79
2018-12-20T23:54:37.573Z,4.71
2018-12-20T23:57:12.365Z,4.64
2018-12-20T23:59:47.439Z,4.54
